Billie H — WCY4992 — position and weather

sailwx.info

Track history (hours):
 
Tides and Currents Weather Stations Pressure Air Temp Water Temp Dewpoint Dewpoint Depression Visibility Wind Speed Wind Dir Waves Ship Positions

Billie H

Owner: BOYER TOWING INC, KETCHIKAN, AK. More information available from US FCC via Universal Licensing System and Coast Guard Vessel Documentation Center.

Last reported at 2016-Jul-27 16:33 UTC. Time now 2016-Jul-27 17:13 UTC.
Position N 48°31' W 122°36'.

Type: Tow > 200 m length. MMSI: 366751770.

Date/timePositionNaut miles runAvg speedWind from/ knotsBaromVisibWave heightAir tempDewpointWater temp
2016-Jul-27 16:33N 48°31' W 122°36'0 0.0
2016-Jul-27 15:33N 48°31' W 122°36'0 0.0
2016-Jul-27 14:34N 48°31' W 122°36'0 0.0
2016-Jul-27 13:33N 48°31' W 122°36'0 0.0
2016-Jul-27 12:33N 48°31' W 122°36'0 0.0
2016-Jul-27 11:33N 48°31' W 122°36'0 0.0
2016-Jul-27 10:33N 48°31' W 122°36'0 0.0
2016-Jul-27 09:33N 48°31' W 122°36'0 0.0
2016-Jul-27 08:33N 48°31' W 122°36'0 0.0
2016-Jul-27 07:33N 48°31' W 122°36'0 0.0
2016-Jul-27 06:33N 48°31' W 122°36'0 0.0
2016-Jul-27 05:33N 48°31' W 122°36'0 0.0
2016-Jul-27 04:33N 48°31' W 122°36'0 0.0
2016-Jul-27 03:33N 48°31' W 122°36'0 0.0
2016-Jul-27 02:33N 48°31' W 122°36'0 0.0
2016-Jul-27 01:33N 48°31' W 122°36'0 0.0
2016-Jul-27 00:33N 48°31' W 122°36'0 0.0
2016-Jul-26 23:33N 48°31' W 122°36'0 0.0
2016-Jul-26 22:33N 48°31' W 122°36'0 0.0
2016-Jul-26 21:33N 48°31' W 122°36'0 0.0
2016-Jul-26 20:33N 48°31' W 122°36'0 0.0
2016-Jul-26 19:33N 48°31' W 122°36'0 0.0
2016-Jul-26 18:33N 48°31' W 122°36'0 0.0
2016-Jul-26 17:33N 48°31' W 122°36'0 0.0
2016-Jul-26 16:33N 48°31' W 122°36'0 0.0
2016-Jul-26 15:33N 48°31' W 122°36'0 0.0
2016-Jul-26 14:33N 48°31' W 122°36'0 0.0
2016-Jul-26 13:33N 48°31' W 122°36'0 0.0
2016-Jul-26 12:33N 48°31' W 122°36'0 0.0
2016-Jul-26 11:33N 48°31' W 122°36'0 0.0
2016-Jul-26 10:33N 48°31' W 122°36'0 0.0
2016-Jul-26 09:33N 48°31' W 122°36'0 0.0
2016-Jul-26 08:33N 48°31' W 122°36'0 0.0
2016-Jul-26 07:33N 48°31' W 122°36'0 0.0
2016-Jul-26 06:33N 48°31' W 122°36'0 0.0
2016-Jul-26 05:33N 48°31' W 122°36'0 0.0
2016-Jul-26 04:33N 48°31' W 122°36'0 0.0
2016-Jul-26 03:33N 48°31' W 122°36'0 0.0
2016-Jul-26 02:33N 48°31' W 122°36'0 0.0
2016-Jul-26 01:33N 48°31' W 122°36'0 0.0
2016-Jul-26 00:33N 48°31' W 122°36'0 0.0
2016-Jul-25 23:33N 48°31' W 122°36'0 0.0
2016-Jul-25 22:33N 48°31' W 122°36'0 0.0
2016-Jul-25 21:33N 48°31' W 122°36'0 0.0
2016-Jul-25 20:33N 48°31' W 122°36'0 0.0
2016-Jul-25 19:33N 48°31' W 122°36'0 0.0
2016-Jul-25 18:33N 48°31' W 122°36'0 0.0
2016-Jul-25 17:33N 48°31' W 122°36'0 0.0
2016-Jul-25 16:33N 48°31' W 122°36'0 0.0
2016-Jul-25 15:33N 48°31' W 122°36'0 0.0
2016-Jul-25 14:33N 48°31' W 122°36'1 0.7
2016-Jul-25 13:34N 48°32' W 122°35'4 4.2
2016-Jul-25 12:33N 48°31' W 122°42'6 6.4
2016-Jul-25 11:34N 48°26' W 122°46'8 7.9
2016-Jul-25 10:33N 48°21' W 122°55'9 8.2
2016-Jul-25 09:30N 48°16' W 123°06'8 7.7
2016-Jul-25 08:29N 48°13' W 123°17'10 7.1
2016-Jul-25 07:05N 48°13' W 123°32'4 7.2
2016-Jul-25 06:33N 48°13' W 123°38'17 8.0
2016-Jul-25 04:25N 48°15' W 124°03'8 9.2
2016-Jul-25 03:33N 48°18' W 124°14'9 9.3
2016-Jul-25 02:34N 48°22' W 124°27'9 9.3
2016-Jul-25 01:34N 48°25' W 124°40'9 9.1
2016-Jul-25 00:31N 48°20' W 124°52'64 7.9
2016-Jul-24 16:23N 47°17' W 124°37'7 8.0
2016-Jul-24 15:29N 47°10' W 124°36'7 8.1
2016-Jul-24 14:34N 47°03' W 124°33'8 8.2
2016-Jul-24 13:34N 46°55' W 124°30'8 8.2
2016-Jul-24 12:34N 46°47' W 124°27'8 8.3
2016-Jul-24 11:33N 46°39' W 124°24'8 8.1
2016-Jul-24 10:34N 46°31' W 124°22'8 8.2
2016-Jul-24 09:34N 46°23' W 124°20'8 8.4
2016-Jul-24 08:34N 46°15' W 124°17'7 6.9
2016-Jul-24 07:34N 46°14' W 124°07'4 4.2
2016-Jul-24 06:34N 46°16' W 124°02'0 0.0
2016-Jul-24 05:34N 46°16' W 124°02'0 0.0
2016-Jul-24 04:34N 46°16' W 124°02'0 0.0
2016-Jul-24 03:34N 46°16' W 124°02'0 0.0
2016-Jul-24 02:27N 46°16' W 124°02'0 0.0
2016-Jul-24 01:33N 46°16' W 124°02'0 0.0
2016-Jul-24 00:33N 46°16' W 124°02'0 0.0
2016-Jul-23 23:30N 46°16' W 124°02'0 0.0
2016-Jul-23 22:30N 46°16' W 124°02'0 0.0
2016-Jul-23 21:30N 46°16' W 124°02'0 0.0
2016-Jul-23 20:33N 46°16' W 124°02'0 0.0
2016-Jul-23 19:33N 46°16' W 124°02'0 0.0
2016-Jul-23 18:30N 46°16' W 124°02'0 0.0
2016-Jul-23 17:33N 46°16' W 124°02'0 0.0
2016-Jul-23 16:33N 46°16' W 124°02'0 0.0
2016-Jul-23 15:30N 46°16' W 124°02'0 0.0
2016-Jul-23 14:33N 46°16' W 124°02'0 0.0
2016-Jul-23 13:33N 46°16' W 124°02'0 0.0
2016-Jul-23 12:32N 46°16' W 124°02'0 0.0
2016-Jul-23 11:33N 46°16' W 124°02'0 0.0
2016-Jul-23 10:32N 46°16' W 124°02'0 0.0
2016-Jul-23 09:32N 46°16' W 124°02'0 0.0
2016-Jul-23 08:32N 46°16' W 124°02'0 0.0
2016-Jul-23 07:32N 46°16' W 124°02'0 0.0
2016-Jul-23 06:29N 46°16' W 124°02'0 0.0
2016-Jul-23 04:32N 46°16' W 124°02'0 0.0
2016-Jul-23 03:32N 46°16' W 124°02'0 0.0
2016-Jul-23 02:32N 46°16' W 124°02'0 0.0
2016-Jul-23 01:32N 46°16' W 124°02'0 0.0
2016-Jul-23 00:29N 46°16' W 124°02'0 0.0
2016-Jul-22 23:32N 46°16' W 124°02'0 0.0
2016-Jul-22 22:32N 46°16' W 124°02'0 0.0
2016-Jul-22 21:29N 46°16' W 124°02'0 0.0
2016-Jul-22 20:32N 46°16' W 124°02'0 0.0
2016-Jul-22 19:29N 46°16' W 124°02'0 0.0
2016-Jul-22 18:32N 46°16' W 124°02'0 0.0
2016-Jul-22 17:32N 46°16' W 124°02'0 0.0
2016-Jul-22 16:32N 46°16' W 124°02'0 0.0
2016-Jul-22 15:29N 46°16' W 124°02'0 0.0
2016-Jul-22 14:32N 46°16' W 124°02'0 0.0
2016-Jul-22 13:32N 46°16' W 124°02'0 0.0
2016-Jul-22 12:29N 46°16' W 124°02'0 0.0
2016-Jul-22 11:32N 46°16' W 124°02'0 0.0
2016-Jul-22 10:32N 46°16' W 124°02'0 0.0
2016-Jul-22 09:32N 46°16' W 124°02'0 0.0
2016-Jul-22 08:32N 46°16' W 124°02'0 0.0
2016-Jul-22 07:32N 46°16' W 124°02'0 0.0
2016-Jul-22 04:23N 46°16' W 124°02'0 0.0
2016-Jul-22 03:32N 46°16' W 124°02'0 0.0
2016-Jul-22 02:29N 46°16' W 124°02'0 0.0
2016-Jul-22 01:32N 46°16' W 124°02'0 0.0
2016-Jul-22 00:32N 46°16' W 124°02'0 0.0
2016-Jul-21 23:32N 46°16' W 124°02'0 0.0
2016-Jul-21 22:32N 46°16' W 124°02'0 0.0
2016-Jul-21 21:32N 46°16' W 124°02'0 0.0
2016-Jul-21 20:31N 46°16' W 124°02'0 0.0
2016-Jul-21 19:31N 46°16' W 124°02'0 0.0
2016-Jul-21 18:31N 46°16' W 124°02'0 0.0
2016-Jul-21 17:31N 46°16' W 124°02'0 0.0
2016-Jul-21 16:28N 46°16' W 124°02'0 0.0
2016-Jul-21 15:31N 46°16' W 124°02'0 0.0
2016-Jul-21 14:31N 46°16' W 124°02'0 0.0
2016-Jul-21 13:28N 46°16' W 124°02'0 0.0
2016-Jul-21 12:31N 46°16' W 124°02'0 0.0
2016-Jul-21 11:31N 46°16' W 124°02'0 0.0
2016-Jul-21 10:28N 46°16' W 124°02'0 0.0
2016-Jul-21 09:31N 46°16' W 124°02'0 0.0
2016-Jul-21 08:28N 46°16' W 124°02'0 0.0
2016-Jul-21 07:31N 46°16' W 124°02'0 0.0
2016-Jul-21 06:31N 46°16' W 124°02'0 0.0
2016-Jul-21 05:31N 46°16' W 124°02'0 0.0
2016-Jul-21 04:34N 46°16' W 124°02'0 0.0
2016-Jul-21 03:34N 46°16' W 124°02'0 0.0
2016-Jul-21 02:33N 46°16' W 124°02'0 0.0
2016-Jul-21 01:33N 46°16' W 124°02'0 0.0
2016-Jul-21 00:33N 46°16' W 124°02'0 0.0
2016-Jul-20 23:33N 46°16' W 124°02'0 0.0
2016-Jul-20 22:33N 46°16' W 124°02'0 0.0
2016-Jul-20 21:33N 46°16' W 124°02'0 0.0
2016-Jul-20 20:33N 46°16' W 124°02'0 0.0
2016-Jul-20 19:34N 46°16' W 124°02'0 0.0
2016-Jul-20 18:33N 46°16' W 124°02'0 0.0
2016-Jul-20 17:33N 46°16' W 124°02'0 0.2
2016-Jul-20 16:33N 46°16' W 124°02'3 2.6
2016-Jul-20 15:34N 46°15' W 124°05'3 3.4
2016-Jul-20 14:34N 46°12' W 124°09'1 1.4
2016-Jul-20 13:34N 46°12' W 124°10'4 4.0
2016-Jul-20 12:33N 46°13' W 124°16'4 3.7
2016-Jul-20 11:33N 46°16' W 124°19'4 4.3
2016-Jul-20 10:33N 46°20' W 124°20'4 4.2
2016-Jul-20 09:34N 46°25' W 124°21'5 4.6
2016-Jul-20 08:33N 46°29' W 124°22'4 4.2
2016-Jul-20 07:33N 46°33' W 124°24'5 4.6
2016-Jul-20 06:34N 46°38' W 124°25'7 7.2
2016-Jul-20 05:34N 46°45' W 124°27'7 7.0
2016-Jul-20 04:34N 46°52' W 124°29'7 6.9
2016-Jul-20 03:34N 46°58' W 124°31'7 7.0
2016-Jul-20 02:33N 47°05' W 124°34'68 7.1
2016-Jul-19 17:05N 48°11' W 124°58'5 6.8
2016-Jul-19 16:21N 48°16' W 124°56'6 7.8
2016-Jul-19 15:33N 48°21' W 124°51'7 7.2
2016-Jul-19 14:33N 48°26' W 124°44'9 9.0
2016-Jul-19 13:33N 48°23' W 124°31'9 9.0
2016-Jul-19 12:33N 48°19' W 124°19'9 8.5
2016-Jul-19 11:31N 48°15' W 124°07'7 7.5
2016-Jul-19 10:32N 48°12' W 123°57'7 7.4
2016-Jul-19 09:33N 48°12' W 123°46'7 7.2
2016-Jul-19 08:33N 48°11' W 123°35'7 7.1
2016-Jul-19 07:33N 48°09' W 123°25'18 6.0
2016-Jul-19 04:30N 48°19' W 123°02'7 7.7
2016-Jul-19 03:33N 48°23' W 122°53'7 7.2
2016-Jul-19 02:33N 48°28' W 122°45'6 5.8
2016-Jul-19 01:33N 48°31' W 122°38'1 0.9
2016-Jul-19 00:23N 48°31' W 122°36'  
Track history (hours):
 
Tides and Currents Weather Stations Pressure Air Temp Water Temp Dewpoint Dewpoint Depression Visibility Wind Speed Wind Dir Waves Ship Positions

Billie H

Owner: BOYER TOWING INC, KETCHIKAN, AK. More information available from US FCC via Universal Licensing System and Coast Guard Vessel Documentation Center.

Last reported at 2016-Jul-27 16:33 UTC. Time now 2016-Jul-27 17:13 UTC.
Position N 48°31' W 122°36'.

Type: Tow > 200 m length. MMSI: 366751770.

Date/timePositionNaut miles runAvg speedWind from/ knotsBaromVisibWave heightAir tempDewpointWater temp
2016-Jul-27 16:33N 48°31' W 122°36'0 0.0
2016-Jul-27 15:33N 48°31' W 122°36'0 0.0
2016-Jul-27 14:34N 48°31' W 122°36'0 0.0
2016-Jul-27 13:33N 48°31' W 122°36'0 0.0
2016-Jul-27 12:33N 48°31' W 122°36'0 0.0
2016-Jul-27 11:33N 48°31' W 122°36'0 0.0
2016-Jul-27 10:33N 48°31' W 122°36'0 0.0
2016-Jul-27 09:33N 48°31' W 122°36'0 0.0
2016-Jul-27 08:33N 48°31' W 122°36'0 0.0
2016-Jul-27 07:33N 48°31' W 122°36'0 0.0
2016-Jul-27 06:33N 48°31' W 122°36'0 0.0
2016-Jul-27 05:33N 48°31' W 122°36'0 0.0
2016-Jul-27 04:33N 48°31' W 122°36'0 0.0
2016-Jul-27 03:33N 48°31' W 122°36'0 0.0
2016-Jul-27 02:33N 48°31' W 122°36'0 0.0
2016-Jul-27 01:33N 48°31' W 122°36'0 0.0
2016-Jul-27 00:33N 48°31' W 122°36'0 0.0
2016-Jul-26 23:33N 48°31' W 122°36'0 0.0
2016-Jul-26 22:33N 48°31' W 122°36'0 0.0
2016-Jul-26 21:33N 48°31' W 122°36'0 0.0
2016-Jul-26 20:33N 48°31' W 122°36'0 0.0
2016-Jul-26 19:33N 48°31' W 122°36'0 0.0
2016-Jul-26 18:33N 48°31' W 122°36'0 0.0
2016-Jul-26 17:33N 48°31' W 122°36'0 0.0
2016-Jul-26 16:33N 48°31' W 122°36'0 0.0
2016-Jul-26 15:33N 48°31' W 122°36'0 0.0
2016-Jul-26 14:33N 48°31' W 122°36'0 0.0
2016-Jul-26 13:33N 48°31' W 122°36'0 0.0
2016-Jul-26 12:33N 48°31' W 122°36'0 0.0
2016-Jul-26 11:33N 48°31' W 122°36'0 0.0
2016-Jul-26 10:33N 48°31' W 122°36'0 0.0
2016-Jul-26 09:33N 48°31' W 122°36'0 0.0
2016-Jul-26 08:33N 48°31' W 122°36'0 0.0
2016-Jul-26 07:33N 48°31' W 122°36'0 0.0
2016-Jul-26 06:33N 48°31' W 122°36'0 0.0
2016-Jul-26 05:33N 48°31' W 122°36'0 0.0
2016-Jul-26 04:33N 48°31' W 122°36'0 0.0
2016-Jul-26 03:33N 48°31' W 122°36'0 0.0
2016-Jul-26 02:33N 48°31' W 122°36'0 0.0
2016-Jul-26 01:33N 48°31' W 122°36'0 0.0
2016-Jul-26 00:33N 48°31' W 122°36'0 0.0
2016-Jul-25 23:33N 48°31' W 122°36'0 0.0
2016-Jul-25 22:33N 48°31' W 122°36'0 0.0
2016-Jul-25 21:33N 48°31' W 122°36'0 0.0
2016-Jul-25 20:33N 48°31' W 122°36'0 0.0
2016-Jul-25 19:33N 48°31' W 122°36'0 0.0
2016-Jul-25 18:33N 48°31' W 122°36'0 0.0
2016-Jul-25 17:33N 48°31' W 122°36'0 0.0
2016-Jul-25 16:33N 48°31' W 122°36'0 0.0
2016-Jul-25 15:33N 48°31' W 122°36'0 0.0
2016-Jul-25 14:33N 48°31' W 122°36'1 0.7
2016-Jul-25 13:34N 48°32' W 122°35'4 4.2
2016-Jul-25 12:33N 48°31' W 122°42'6 6.4
2016-Jul-25 11:34N 48°26' W 122°46'8 7.9
2016-Jul-25 10:33N 48°21' W 122°55'9 8.2
2016-Jul-25 09:30N 48°16' W 123°06'8 7.7
2016-Jul-25 08:29N 48°13' W 123°17'10 7.1
2016-Jul-25 07:05N 48°13' W 123°32'4 7.2
2016-Jul-25 06:33N 48°13' W 123°38'17 8.0
2016-Jul-25 04:25N 48°15' W 124°03'8 9.2
2016-Jul-25 03:33N 48°18' W 124°14'9 9.3
2016-Jul-25 02:34N 48°22' W 124°27'9 9.3
2016-Jul-25 01:34N 48°25' W 124°40'9 9.1
2016-Jul-25 00:31N 48°20' W 124°52'64 7.9
2016-Jul-24 16:23N 47°17' W 124°37'7 8.0
2016-Jul-24 15:29N 47°10' W 124°36'7 8.1
2016-Jul-24 14:34N 47°03' W 124°33'8 8.2
2016-Jul-24 13:34N 46°55' W 124°30'8 8.2
2016-Jul-24 12:34N 46°47' W 124°27'8 8.3
2016-Jul-24 11:33N 46°39' W 124°24'8 8.1
2016-Jul-24 10:34N 46°31' W 124°22'8 8.2
2016-Jul-24 09:34N 46°23' W 124°20'8 8.4
2016-Jul-24 08:34N 46°15' W 124°17'7 6.9
2016-Jul-24 07:34N 46°14' W 124°07'4 4.2
2016-Jul-24 06:34N 46°16' W 124°02'0 0.0
2016-Jul-24 05:34N 46°16' W 124°02'0 0.0
2016-Jul-24 04:34N 46°16' W 124°02'0 0.0
2016-Jul-24 03:34N 46°16' W 124°02'0 0.0
2016-Jul-24 02:27N 46°16' W 124°02'0 0.0
2016-Jul-24 01:33N 46°16' W 124°02'0 0.0
2016-Jul-24 00:33N 46°16' W 124°02'0 0.0
2016-Jul-23 23:30N 46°16' W 124°02'0 0.0
2016-Jul-23 22:30N 46°16' W 124°02'0 0.0
2016-Jul-23 21:30N 46°16' W 124°02'0 0.0
2016-Jul-23 20:33N 46°16' W 124°02'0 0.0
2016-Jul-23 19:33N 46°16' W 124°02'0 0.0
2016-Jul-23 18:30N 46°16' W 124°02'0 0.0
2016-Jul-23 17:33N 46°16' W 124°02'0 0.0
2016-Jul-23 16:33N 46°16' W 124°02'0 0.0
2016-Jul-23 15:30N 46°16' W 124°02'0 0.0
2016-Jul-23 14:33N 46°16' W 124°02'0 0.0
2016-Jul-23 13:33N 46°16' W 124°02'0 0.0
2016-Jul-23 12:32N 46°16' W 124°02'0 0.0
2016-Jul-23 11:33N 46°16' W 124°02'0 0.0
2016-Jul-23 10:32N 46°16' W 124°02'0 0.0
2016-Jul-23 09:32N 46°16' W 124°02'0 0.0
2016-Jul-23 08:32N 46°16' W 124°02'0 0.0
2016-Jul-23 07:32N 46°16' W 124°02'0 0.0
2016-Jul-23 06:29N 46°16' W 124°02'0 0.0
2016-Jul-23 04:32N 46°16' W 124°02'0 0.0
2016-Jul-23 03:32N 46°16' W 124°02'0 0.0
2016-Jul-23 02:32N 46°16' W 124°02'0 0.0
2016-Jul-23 01:32N 46°16' W 124°02'0 0.0
2016-Jul-23 00:29N 46°16' W 124°02'0 0.0
2016-Jul-22 23:32N 46°16' W 124°02'0 0.0
2016-Jul-22 22:32N 46°16' W 124°02'0 0.0
2016-Jul-22 21:29N 46°16' W 124°02'0 0.0
2016-Jul-22 20:32N 46°16' W 124°02'0 0.0
2016-Jul-22 19:29N 46°16' W 124°02'0 0.0
2016-Jul-22 18:32N 46°16' W 124°02'0 0.0
2016-Jul-22 17:32N 46°16' W 124°02'0 0.0
2016-Jul-22 16:32N 46°16' W 124°02'0 0.0
2016-Jul-22 15:29N 46°16' W 124°02'0 0.0
2016-Jul-22 14:32N 46°16' W 124°02'0 0.0
2016-Jul-22 13:32N 46°16' W 124°02'0 0.0
2016-Jul-22 12:29N 46°16' W 124°02'0 0.0
2016-Jul-22 11:32N 46°16' W 124°02'0 0.0
2016-Jul-22 10:32N 46°16' W 124°02'0 0.0
2016-Jul-22 09:32N 46°16' W 124°02'0 0.0
2016-Jul-22 08:32N 46°16' W 124°02'0 0.0
2016-Jul-22 07:32N 46°16' W 124°02'0 0.0
2016-Jul-22 04:23N 46°16' W 124°02'0 0.0
2016-Jul-22 03:32N 46°16' W 124°02'0 0.0
2016-Jul-22 02:29N 46°16' W 124°02'0 0.0
2016-Jul-22 01:32N 46°16' W 124°02'0 0.0
2016-Jul-22 00:32N 46°16' W 124°02'0 0.0
2016-Jul-21 23:32N 46°16' W 124°02'0 0.0
2016-Jul-21 22:32N 46°16' W 124°02'0 0.0
2016-Jul-21 21:32N 46°16' W 124°02'0 0.0
2016-Jul-21 20:31N 46°16' W 124°02'0 0.0
2016-Jul-21 19:31N 46°16' W 124°02'0 0.0
2016-Jul-21 18:31N 46°16' W 124°02'0 0.0
2016-Jul-21 17:31N 46°16' W 124°02'0 0.0
2016-Jul-21 16:28N 46°16' W 124°02'0 0.0
2016-Jul-21 15:31N 46°16' W 124°02'0 0.0
2016-Jul-21 14:31N 46°16' W 124°02'0 0.0
2016-Jul-21 13:28N 46°16' W 124°02'0 0.0
2016-Jul-21 12:31N 46°16' W 124°02'0 0.0
2016-Jul-21 11:31N 46°16' W 124°02'0 0.0
2016-Jul-21 10:28N 46°16' W 124°02'0 0.0
2016-Jul-21 09:31N 46°16' W 124°02'0 0.0
2016-Jul-21 08:28N 46°16' W 124°02'0 0.0
2016-Jul-21 07:31N 46°16' W 124°02'0 0.0
2016-Jul-21 06:31N 46°16' W 124°02'0 0.0
2016-Jul-21 05:31N 46°16' W 124°02'0 0.0
2016-Jul-21 04:34N 46°16' W 124°02'0 0.0
2016-Jul-21 03:34N 46°16' W 124°02'0 0.0
2016-Jul-21 02:33N 46°16' W 124°02'0 0.0
2016-Jul-21 01:33N 46°16' W 124°02'0 0.0
2016-Jul-21 00:33N 46°16' W 124°02'0 0.0
2016-Jul-20 23:33N 46°16' W 124°02'0 0.0
2016-Jul-20 22:33N 46°16' W 124°02'0 0.0
2016-Jul-20 21:33N 46°16' W 124°02'0 0.0
2016-Jul-20 20:33N 46°16' W 124°02'0 0.0
2016-Jul-20 19:34N 46°16' W 124°02'0 0.0
2016-Jul-20 18:33N 46°16' W 124°02'0 0.0
2016-Jul-20 17:33N 46°16' W 124°02'0 0.2
2016-Jul-20 16:33N 46°16' W 124°02'3 2.6
2016-Jul-20 15:34N 46°15' W 124°05'3 3.4
2016-Jul-20 14:34N 46°12' W 124°09'1 1.4
2016-Jul-20 13:34N 46°12' W 124°10'4 4.0
2016-Jul-20 12:33N 46°13' W 124°16'4 3.7
2016-Jul-20 11:33N 46°16' W 124°19'4 4.3
2016-Jul-20 10:33N 46°20' W 124°20'4 4.2
2016-Jul-20 09:34N 46°25' W 124°21'5 4.6
2016-Jul-20 08:33N 46°29' W 124°22'4 4.2
2016-Jul-20 07:33N 46°33' W 124°24'5 4.6
2016-Jul-20 06:34N 46°38' W 124°25'7 7.2
2016-Jul-20 05:34N 46°45' W 124°27'7 7.0
2016-Jul-20 04:34N 46°52' W 124°29'7 6.9
2016-Jul-20 03:34N 46°58' W 124°31'7 7.0
2016-Jul-20 02:33N 47°05' W 124°34'68 7.1
2016-Jul-19 17:05N 48°11' W 124°58'5 6.8
2016-Jul-19 16:21N 48°16' W 124°56'6 7.8
2016-Jul-19 15:33N 48°21' W 124°51'7 7.2
2016-Jul-19 14:33N 48°26' W 124°44'9 9.0
2016-Jul-19 13:33N 48°23' W 124°31'9 9.0
2016-Jul-19 12:33N 48°19' W 124°19'9 8.5
2016-Jul-19 11:31N 48°15' W 124°07'7 7.5
2016-Jul-19 10:32N 48°12' W 123°57'7 7.4
2016-Jul-19 09:33N 48°12' W 123°46'7 7.2
2016-Jul-19 08:33N 48°11' W 123°35'7 7.1
2016-Jul-19 07:33N 48°09' W 123°25'18 6.0
2016-Jul-19 04:30N 48°19' W 123°02'7 7.7
2016-Jul-19 03:33N 48°23' W 122°53'7 7.2
2016-Jul-19 02:33N 48°28' W 122°45'6 5.8
2016-Jul-19 01:33N 48°31' W 122°38'1 0.9
2016-Jul-19 00:23N 48°31' W 122°36'  

Dump ship's entire track history